sensor_id;sensor_type;location;lat;lon;timestamp;P1;durP1;ratioP1;P2;durP2;ratioP2
14394;SDS011;7282;49.204;10.652;2024-01-07T00:02:14;26.90;;;19.67;;
14394;SDS011;7282;49.204;10.652;2024-01-07T00:04:41;26.90;;;19.33;;
14394;SDS011;7282;49.204;10.652;2024-01-07T00:07:07;26.17;;;20.30;;
14394;SDS011;7282;49.204;10.652;2024-01-07T00:09:34;26.53;;;19.60;;
14394;SDS011;7282;49.204;10.652;2024-01-07T00:12:01;25.70;;;20.63;;
14394;SDS011;7282;49.204;10.652;2024-01-07T00:14:28;25.20;;;19.37;;
14394;SDS011;7282;49.204;10.652;2024-01-07T00:16:54;27.23;;;19.03;;
14394;SDS011;7282;49.204;10.652;2024-01-07T00:19:21;30.03;;;18.87;;
14394;SDS011;7282;49.204;10.652;2024-01-07T00:21:48;25.53;;;18.80;;
14394;SDS011;7282;49.204;10.652;2024-01-07T00:24:15;23.40;;;18.53;;
14394;SDS011;7282;49.204;10.652;2024-01-07T00:29:22;27.63;;;18.30;;
14394;SDS011;7282;49.204;10.652;2024-01-07T00:31:49;27.20;;;18.60;;
14394;SDS011;7282;49.204;10.652;2024-01-07T00:34:15;25.27;;;18.87;;
14394;SDS011;7282;49.204;10.652;2024-01-07T00:36:42;24.40;;;17.20;;
14394;SDS011;7282;49.204;10.652;2024-01-07T00:39:09;25.20;;;17.90;;
14394;SDS011;7282;49.204;10.652;2024-01-07T00:41:35;24.57;;;18.20;;
14394;SDS011;7282;49.204;10.652;2024-01-07T00:44:04;28.50;;;18.87;;
14394;SDS011;7282;49.204;10.652;2024-01-07T00:46:31;21.70;;;17.93;;
14394;SDS011;7282;49.204;10.652;2024-01-07T00:48:57;21.90;;;17.30;;
14394;SDS011;7282;49.204;10.652;2024-01-07T00:51:24;23.60;;;17.90;;
14394;SDS011;7282;49.204;10.652;2024-01-07T00:53:51;23.10;;;17.23;;
14394;SDS011;7282;49.204;10.652;2024-01-07T00:56:18;22.63;;;17.23;;
14394;SDS011;7282;49.204;10.652;2024-01-07T00:58:44;22.30;;;16.97;;
14394;SDS011;7282;49.204;10.652;2024-01-07T01:01:11;21.80;;;16.80;;
14394;SDS011;7282;49.204;10.652;2024-01-07T01:03:38;20.83;;;16.83;;
14394;SDS011;7282;49.204;10.652;2024-01-07T01:06:04;26.03;;;17.47;;
14394;SDS011;7282;49.204;10.652;2024-01-07T01:08:31;20.53;;;16.67;;
14394;SDS011;7282;49.204;10.652;2024-01-07T01:10:58;25.03;;;17.53;;
14394;SDS011;7282;49.204;10.652;2024-01-07T01:13:25;23.50;;;17.37;;
14394;SDS011;7282;49.204;10.652;2024-01-07T01:15:51;22.03;;;17.00;;
14394;SDS011;7282;49.204;10.652;2024-01-07T01:18:18;24.63;;;17.20;;
14394;SDS011;7282;49.204;10.652;2024-01-07T01:20:45;21.70;;;16.90;;
14394;SDS011;7282;49.204;10.652;2024-01-07T01:23:11;23.07;;;18.00;;
14394;SDS011;7282;49.204;10.652;2024-01-07T01:25:38;20.63;;;17.17;;
14394;SDS011;7282;49.204;10.652;2024-01-07T01:28:05;23.77;;;17.97;;
14394;SDS011;7282;49.204;10.652;2024-01-07T01:30:32;22.70;;;17.43;;
14394;SDS011;7282;49.204;10.652;2024-01-07T01:32:59;24.27;;;17.50;;
14394;SDS011;7282;49.204;10.652;2024-01-07T01:35:26;21.83;;;17.10;;
14394;SDS011;7282;49.204;10.652;2024-01-07T01:37:52;24.20;;;18.40;;
14394;SDS011;7282;49.204;10.652;2024-01-07T01:40:20;24.23;;;18.10;;
14394;SDS011;7282;49.204;10.652;2024-01-07T01:42:47;23.53;;;18.27;;
14394;SDS011;7282;49.204;10.652;2024-01-07T01:45:15;23.97;;;17.97;;
14394;SDS011;7282;49.204;10.652;2024-01-07T01:47:42;25.17;;;17.10;;
14394;SDS011;7282;49.204;10.652;2024-01-07T01:50:10;22.33;;;18.50;;
14394;SDS011;7282;49.204;10.652;2024-01-07T01:52:37;23.53;;;17.80;;
14394;SDS011;7282;49.204;10.652;2024-01-07T01:55:04;24.17;;;18.53;;
14394;SDS011;7282;49.204;10.652;2024-01-07T01:57:33;22.60;;;17.67;;
14394;SDS011;7282;49.204;10.652;2024-01-07T02:00:02;23.93;;;18.00;;
14394;SDS011;7282;49.204;10.652;2024-01-07T02:02:31;25.13;;;18.17;;
14394;SDS011;7282;49.204;10.652;2024-01-07T02:05:03;24.47;;;18.23;;
14394;SDS011;7282;49.204;10.652;2024-01-07T02:07:30;25.93;;;19.17;;
14394;SDS011;7282;49.204;10.652;2024-01-07T02:09:57;22.97;;;18.63;;
14394;SDS011;7282;49.204;10.652;2024-01-07T02:12:24;22.93;;;18.30;;
14394;SDS011;7282;49.204;10.652;2024-01-07T02:14:50;24.97;;;18.47;;
14394;SDS011;7282;49.204;10.652;2024-01-07T02:17:18;22.43;;;18.70;;
14394;SDS011;7282;49.204;10.652;2024-01-07T02:19:45;25.73;;;19.47;;
14394;SDS011;7282;49.204;10.652;2024-01-07T02:22:12;29.50;;;18.80;;
14394;SDS011;7282;49.204;10.652;2024-01-07T02:24:38;23.67;;;18.60;;
14394;SDS011;7282;49.204;10.652;2024-01-07T02:27:05;25.70;;;18.60;;
14394;SDS011;7282;49.204;10.652;2024-01-07T02:29:32;23.77;;;18.07;;
14394;SDS011;7282;49.204;10.652;2024-01-07T02:31:58;22.87;;;18.47;;
14394;SDS011;7282;49.204;10.652;2024-01-07T02:34:25;23.37;;;18.47;;
14394;SDS011;7282;49.204;10.652;2024-01-07T02:36:52;29.63;;;19.10;;
14394;SDS011;7282;49.204;10.652;2024-01-07T02:39:19;23.13;;;18.20;;
14394;SDS011;7282;49.204;10.652;2024-01-07T02:41:45;25.73;;;18.40;;
14394;SDS011;7282;49.204;10.652;2024-01-07T02:44:12;28.70;;;18.07;;
14394;SDS011;7282;49.204;10.652;2024-01-07T02:46:39;23.50;;;18.57;;
14394;SDS011;7282;49.204;10.652;2024-01-07T02:49:06;26.80;;;19.07;;
14394;SDS011;7282;49.204;10.652;2024-01-07T02:51:32;24.13;;;18.27;;
14394;SDS011;7282;49.204;10.652;2024-01-07T02:53:59;25.10;;;18.57;;
14394;SDS011;7282;49.204;10.652;2024-01-07T02:56:26;23.17;;;18.40;;
14394;SDS011;7282;49.204;10.652;2024-01-07T02:58:52;23.87;;;18.43;;
14394;SDS011;7282;49.204;10.652;2024-01-07T03:01:21;27.30;;;18.33;;
14394;SDS011;7282;49.204;10.652;2024-01-07T03:03:48;24.50;;;18.50;;
14394;SDS011;7282;49.204;10.652;2024-01-07T03:06:14;22.77;;;17.77;;
14394;SDS011;7282;49.204;10.652;2024-01-07T03:08:41;26.77;;;19.00;;
14394;SDS011;7282;49.204;10.652;2024-01-07T03:11:08;21.80;;;17.77;;
14394;SDS011;7282;49.204;10.652;2024-01-07T03:13:35;23.00;;;17.90;;
14394;SDS011;7282;49.204;10.652;2024-01-07T03:16:02;25.30;;;19.03;;
14394;SDS011;7282;49.204;10.652;2024-01-07T03:18:29;23.03;;;18.70;;
14394;SDS011;7282;49.204;10.652;2024-01-07T03:20:55;24.20;;;19.10;;
14394;SDS011;7282;49.204;10.652;2024-01-07T03:23:22;24.13;;;17.70;;
14394;SDS011;7282;49.204;10.652;2024-01-07T03:25:49;23.50;;;17.80;;
14394;SDS011;7282;49.204;10.652;2024-01-07T03:28:16;22.70;;;18.03;;
14394;SDS011;7282;49.204;10.652;2024-01-07T03:30:42;23.47;;;18.27;;
14394;SDS011;7282;49.204;10.652;2024-01-07T03:33:09;22.13;;;16.90;;
14394;SDS011;7282;49.204;10.652;2024-01-07T03:35:36;21.83;;;17.40;;
14394;SDS011;7282;49.204;10.652;2024-01-07T03:38:02;22.93;;;16.97;;
14394;SDS011;7282;49.204;10.652;2024-01-07T03:40:29;21.33;;;16.77;;
14394;SDS011;7282;49.204;10.652;2024-01-07T03:42:56;20.87;;;16.00;;
14394;SDS011;7282;49.204;10.652;2024-01-07T03:45:23;20.10;;;16.67;;
14394;SDS011;7282;49.204;10.652;2024-01-07T03:47:49;16.93;;;15.00;;
14394;SDS011;7282;49.204;10.652;2024-01-07T03:50:16;17.80;;;14.97;;
14394;SDS011;7282;49.204;10.652;2024-01-07T03:52:43;15.80;;;13.77;;
14394;SDS011;7282;49.204;10.652;2024-01-07T03:55:09;17.07;;;14.00;;
14394;SDS011;7282;49.204;10.652;2024-01-07T03:57:36;16.80;;;13.67;;
14394;SDS011;7282;49.204;10.652;2024-01-07T04:00:03;16.23;;;13.83;;
14394;SDS011;7282;49.204;10.652;2024-01-07T04:02:30;15.63;;;13.50;;
14394;SDS011;7282;49.204;10.652;2024-01-07T04:04:57;15.47;;;12.53;;
14394;SDS011;7282;49.204;10.652;2024-01-07T04:07:23;13.70;;;11.70;;
14394;SDS011;7282;49.204;10.652;2024-01-07T04:09:50;16.90;;;12.37;;
14394;SDS011;7282;49.204;10.652;2024-01-07T04:12:17;14.23;;;11.57;;
14394;SDS011;7282;49.204;10.652;2024-01-07T04:14:43;15.47;;;13.43;;
14394;SDS011;7282;49.204;10.652;2024-01-07T04:17:10;15.47;;;12.13;;
14394;SDS011;7282;49.204;10.652;2024-01-07T04:19:37;16.23;;;12.37;;
14394;SDS011;7282;49.204;10.652;2024-01-07T04:22:06;15.10;;;12.67;;
14394;SDS011;7282;49.204;10.652;2024-01-07T04:24:32;16.03;;;13.13;;
14394;SDS011;7282;49.204;10.652;2024-01-07T04:26:59;15.70;;;12.67;;
14394;SDS011;7282;49.204;10.652;2024-01-07T04:29:26;16.10;;;13.77;;
14394;SDS011;7282;49.204;10.652;2024-01-07T04:31:52;15.67;;;13.47;;
14394;SDS011;7282;49.204;10.652;2024-01-07T04:34:19;14.80;;;12.73;;
14394;SDS011;7282;49.204;10.652;2024-01-07T04:36:46;15.27;;;12.70;;
14394;SDS011;7282;49.204;10.652;2024-01-07T04:39:13;15.80;;;13.87;;
14394;SDS011;7282;49.204;10.652;2024-01-07T04:41:40;16.17;;;13.00;;
14394;SDS011;7282;49.204;10.652;2024-01-07T04:44:07;16.97;;;13.33;;
14394;SDS011;7282;49.204;10.652;2024-01-07T04:46:34;15.27;;;12.93;;
14394;SDS011;7282;49.204;10.652;2024-01-07T04:49:01;16.10;;;13.03;;
14394;SDS011;7282;49.204;10.652;2024-01-07T04:51:28;17.67;;;13.17;;
14394;SDS011;7282;49.204;10.652;2024-01-07T04:53:55;15.70;;;12.47;;
14394;SDS011;7282;49.204;10.652;2024-01-07T04:56:21;13.43;;;10.67;;
14394;SDS011;7282;49.204;10.652;2024-01-07T04:58:48;14.03;;;11.20;;
14394;SDS011;7282;49.204;10.652;2024-01-07T05:01:15;13.23;;;10.47;;
14394;SDS011;7282;49.204;10.652;2024-01-07T05:03:41;11.70;;;10.47;;
14394;SDS011;7282;49.204;10.652;2024-01-07T05:06:08;14.27;;;10.77;;
14394;SDS011;7282;49.204;10.652;2024-01-07T05:08:36;14.33;;;10.93;;
14394;SDS011;7282;49.204;10.652;2024-01-07T05:11:03;13.10;;;11.13;;
14394;SDS011;7282;49.204;10.652;2024-01-07T05:13:30;13.33;;;11.70;;
14394;SDS011;7282;49.204;10.652;2024-01-07T05:15:57;13.53;;;10.80;;
14394;SDS011;7282;49.204;10.652;2024-01-07T05:18:24;15.17;;;11.43;;
14394;SDS011;7282;49.204;10.652;2024-01-07T05:20:51;11.67;;;10.20;;
14394;SDS011;7282;49.204;10.652;2024-01-07T05:23:18;13.63;;;11.00;;
14394;SDS011;7282;49.204;10.652;2024-01-07T05:25:44;12.47;;;10.93;;
14394;SDS011;7282;49.204;10.652;2024-01-07T05:28:12;15.33;;;11.47;;
14394;SDS011;7282;49.204;10.652;2024-01-07T05:30:39;15.17;;;11.97;;
14394;SDS011;7282;49.204;10.652;2024-01-07T05:33:06;13.90;;;11.67;;
14394;SDS011;7282;49.204;10.652;2024-01-07T05:35:33;12.47;;;10.90;;
14394;SDS011;7282;49.204;10.652;2024-01-07T05:38:00;14.40;;;11.17;;
14394;SDS011;7282;49.204;10.652;2024-01-07T05:40:26;13.17;;;10.83;;
14394;SDS011;7282;49.204;10.652;2024-01-07T05:42:53;13.83;;;10.33;;
14394;SDS011;7282;49.204;10.652;2024-01-07T05:45:20;12.63;;;10.17;;
14394;SDS011;7282;49.204;10.652;2024-01-07T05:47:46;13.43;;;10.83;;
14394;SDS011;7282;49.204;10.652;2024-01-07T05:50:13;13.07;;;10.37;;
14394;SDS011;7282;49.204;10.652;2024-01-07T05:52:42;12.00;;;10.30;;
14394;SDS011;7282;49.204;10.652;2024-01-07T05:55:09;12.63;;;9.57;;
14394;SDS011;7282;49.204;10.652;2024-01-07T05:57:36;11.53;;;8.90;;
14394;SDS011;7282;49.204;10.652;2024-01-07T06:00:03;11.17;;;9.23;;
14394;SDS011;7282;49.204;10.652;2024-01-07T06:02:29;12.13;;;9.00;;
14394;SDS011;7282;49.204;10.652;2024-01-07T06:04:56;11.57;;;8.93;;
14394;SDS011;7282;49.204;10.652;2024-01-07T06:07:23;11.90;;;8.80;;
14394;SDS011;7282;49.204;10.652;2024-01-07T06:09:49;9.77;;;8.73;;
14394;SDS011;7282;49.204;10.652;2024-01-07T06:12:16;9.93;;;8.50;;
14394;SDS011;7282;49.204;10.652;2024-01-07T06:14:43;10.23;;;7.90;;
14394;SDS011;7282;49.204;10.652;2024-01-07T06:17:09;11.60;;;8.50;;
14394;SDS011;7282;49.204;10.652;2024-01-07T06:19:36;10.37;;;8.40;;
14394;SDS011;7282;49.204;10.652;2024-01-07T06:22:05;12.23;;;8.60;;
14394;SDS011;7282;49.204;10.652;2024-01-07T06:24:32;10.93;;;7.87;;
14394;SDS011;7282;49.204;10.652;2024-01-07T06:26:58;11.10;;;8.73;;
14394;SDS011;7282;49.204;10.652;2024-01-07T06:29:25;10.77;;;8.20;;
14394;SDS011;7282;49.204;10.652;2024-01-07T06:31:52;8.83;;;7.83;;
14394;SDS011;7282;49.204;10.652;2024-01-07T06:34:19;9.67;;;7.97;;
14394;SDS011;7282;49.204;10.652;2024-01-07T06:36:46;9.83;;;7.80;;
14394;SDS011;7282;49.204;10.652;2024-01-07T06:39:13;8.73;;;7.67;;
14394;SDS011;7282;49.204;10.652;2024-01-07T06:41:40;9.70;;;7.67;;
14394;SDS011;7282;49.204;10.652;2024-01-07T06:44:07;8.17;;;6.67;;
14394;SDS011;7282;49.204;10.652;2024-01-07T06:46:33;7.27;;;6.57;;
14394;SDS011;7282;49.204;10.652;2024-01-07T06:49:03;8.80;;;7.30;;
14394;SDS011;7282;49.204;10.652;2024-01-07T06:51:29;10.20;;;7.80;;
14394;SDS011;7282;49.204;10.652;2024-01-07T06:53:56;8.97;;;7.33;;
14394;SDS011;7282;49.204;10.652;2024-01-07T06:56:23;9.20;;;7.63;;
14394;SDS011;7282;49.204;10.652;2024-01-07T06:58:50;8.20;;;7.20;;
14394;SDS011;7282;49.204;10.652;2024-01-07T07:01:19;10.03;;;8.30;;
14394;SDS011;7282;49.204;10.652;2024-01-07T07:03:46;8.87;;;7.77;;
14394;SDS011;7282;49.204;10.652;2024-01-07T07:06:12;10.03;;;7.83;;
14394;SDS011;7282;49.204;10.652;2024-01-07T07:08:39;8.73;;;7.37;;
14394;SDS011;7282;49.204;10.652;2024-01-07T07:11:06;9.60;;;8.30;;
14394;SDS011;7282;49.204;10.652;2024-01-07T07:13:33;10.07;;;8.20;;
14394;SDS011;7282;49.204;10.652;2024-01-07T07:16:00;10.03;;;8.20;;
14394;SDS011;7282;49.204;10.652;2024-01-07T07:18:27;9.70;;;7.90;;
14394;SDS011;7282;49.204;10.652;2024-01-07T07:20:54;8.97;;;7.33;;
14394;SDS011;7282;49.204;10.652;2024-01-07T07:23:20;10.03;;;8.10;;
14394;SDS011;7282;49.204;10.652;2024-01-07T07:25:47;12.03;;;8.80;;
14394;SDS011;7282;49.204;10.652;2024-01-07T07:28:14;11.53;;;8.53;;
14394;SDS011;7282;49.204;10.652;2024-01-07T07:30:42;11.30;;;8.87;;
14394;SDS011;7282;49.204;10.652;2024-01-07T07:33:08;11.33;;;8.77;;
14394;SDS011;7282;49.204;10.652;2024-01-07T07:35:35;11.83;;;9.43;;
14394;SDS011;7282;49.204;10.652;2024-01-07T07:38:03;11.70;;;8.60;;
14394;SDS011;7282;49.204;10.652;2024-01-07T07:40:31;12.57;;;9.23;;
14394;SDS011;7282;49.204;10.652;2024-01-07T07:42:58;11.37;;;8.90;;
14394;SDS011;7282;49.204;10.652;2024-01-07T07:45:24;11.27;;;9.07;;
14394;SDS011;7282;49.204;10.652;2024-01-07T07:47:51;11.23;;;8.93;;
14394;SDS011;7282;49.204;10.652;2024-01-07T07:50:18;11.77;;;8.50;;
14394;SDS011;7282;49.204;10.652;2024-01-07T07:52:44;12.53;;;9.30;;
14394;SDS011;7282;49.204;10.652;2024-01-07T07:55:11;11.00;;;8.90;;
14394;SDS011;7282;49.204;10.652;2024-01-07T07:57:38;12.50;;;8.73;;
14394;SDS011;7282;49.204;10.652;2024-01-07T08:00:05;12.00;;;9.10;;
14394;SDS011;7282;49.204;10.652;2024-01-07T08:02:32;12.30;;;10.23;;
14394;SDS011;7282;49.204;10.652;2024-01-07T08:04:59;10.67;;;8.63;;
14394;SDS011;7282;49.204;10.652;2024-01-07T08:07:25;12.80;;;10.00;;
14394;SDS011;7282;49.204;10.652;2024-01-07T08:09:52;11.90;;;9.33;;
14394;SDS011;7282;49.204;10.652;2024-01-07T08:12:19;12.00;;;9.97;;
14394;SDS011;7282;49.204;10.652;2024-01-07T08:14:46;13.53;;;10.10;;
14394;SDS011;7282;49.204;10.652;2024-01-07T08:17:12;12.27;;;9.70;;
14394;SDS011;7282;49.204;10.652;2024-01-07T08:19:39;13.93;;;9.50;;
14394;SDS011;7282;49.204;10.652;2024-01-07T08:22:06;11.23;;;9.53;;
14394;SDS011;7282;49.204;10.652;2024-01-07T08:24:33;13.03;;;10.10;;
14394;SDS011;7282;49.204;10.652;2024-01-07T08:27:00;11.30;;;8.73;;
14394;SDS011;7282;49.204;10.652;2024-01-07T08:29:29;12.43;;;10.63;;
14394;SDS011;7282;49.204;10.652;2024-01-07T08:31:55;11.07;;;9.50;;
14394;SDS011;7282;49.204;10.652;2024-01-07T08:34:22;12.87;;;9.73;;
14394;SDS011;7282;49.204;10.652;2024-01-07T08:36:49;14.17;;;10.60;;
14394;SDS011;7282;49.204;10.652;2024-01-07T08:39:16;13.43;;;9.50;;
14394;SDS011;7282;49.204;10.652;2024-01-07T08:41:42;13.37;;;9.93;;
14394;SDS011;7282;49.204;10.652;2024-01-07T08:44:10;13.70;;;10.60;;
14394;SDS011;7282;49.204;10.652;2024-01-07T08:46:36;13.70;;;10.67;;
14394;SDS011;7282;49.204;10.652;2024-01-07T08:49:03;14.20;;;10.47;;
14394;SDS011;7282;49.204;10.652;2024-01-07T08:51:30;13.97;;;10.13;;
14394;SDS011;7282;49.204;10.652;2024-01-07T08:53:57;13.23;;;10.67;;
14394;SDS011;7282;49.204;10.652;2024-01-07T08:56:24;13.07;;;10.47;;
14394;SDS011;7282;49.204;10.652;2024-01-07T08:58:51;15.67;;;10.97;;
14394;SDS011;7282;49.204;10.652;2024-01-07T09:01:18;13.70;;;10.33;;
14394;SDS011;7282;49.204;10.652;2024-01-07T09:03:45;13.43;;;10.47;;
14394;SDS011;7282;49.204;10.652;2024-01-07T09:06:11;14.67;;;10.67;;
14394;SDS011;7282;49.204;10.652;2024-01-07T09:08:38;13.13;;;9.97;;
14394;SDS011;7282;49.204;10.652;2024-01-07T09:11:05;13.93;;;10.57;;
14394;SDS011;7282;49.204;10.652;2024-01-07T09:13:32;13.70;;;11.63;;
14394;SDS011;7282;49.204;10.652;2024-01-07T09:15:59;15.07;;;11.57;;
14394;SDS011;7282;49.204;10.652;2024-01-07T09:18:26;13.73;;;11.07;;
14394;SDS011;7282;49.204;10.652;2024-01-07T09:20:53;15.63;;;11.63;;
14394;SDS011;7282;49.204;10.652;2024-01-07T09:23:19;14.40;;;11.10;;
14394;SDS011;7282;49.204;10.652;2024-01-07T09:25:46;13.37;;;11.50;;
14394;SDS011;7282;49.204;10.652;2024-01-07T09:28:13;15.13;;;12.07;;
14394;SDS011;7282;49.204;10.652;2024-01-07T09:30:39;15.40;;;11.20;;
14394;SDS011;7282;49.204;10.652;2024-01-07T09:33:06;14.80;;;11.43;;
14394;SDS011;7282;49.204;10.652;2024-01-07T09:35:36;14.70;;;11.43;;
14394;SDS011;7282;49.204;10.652;2024-01-07T09:38:03;15.23;;;11.77;;
14394;SDS011;7282;49.204;10.652;2024-01-07T09:40:30;13.20;;;11.47;;
14394;SDS011;7282;49.204;10.652;2024-01-07T09:42:56;13.77;;;11.27;;
14394;SDS011;7282;49.204;10.652;2024-01-07T09:45:25;15.87;;;11.50;;
14394;SDS011;7282;49.204;10.652;2024-01-07T09:47:51;14.00;;;10.50;;
14394;SDS011;7282;49.204;10.652;2024-01-07T09:50:18;14.90;;;11.17;;
14394;SDS011;7282;49.204;10.652;2024-01-07T09:52:46;16.50;;;11.60;;
14394;SDS011;7282;49.204;10.652;2024-01-07T09:55:15;13.23;;;11.07;;
14394;SDS011;7282;49.204;10.652;2024-01-07T09:57:41;13.40;;;10.73;;
14394;SDS011;7282;49.204;10.652;2024-01-07T10:00:10;15.77;;;11.97;;
14394;SDS011;7282;49.204;10.652;2024-01-07T10:02:37;14.10;;;11.37;;
14394;SDS011;7282;49.204;10.652;2024-01-07T10:05:06;13.03;;;11.40;;
14394;SDS011;7282;49.204;10.652;2024-01-07T10:07:33;14.40;;;11.97;;
14394;SDS011;7282;49.204;10.652;2024-01-07T10:10:10;14.30;;;11.33;;
14394;SDS011;7282;49.204;10.652;2024-01-07T10:12:28;16.30;;;11.80;;
14394;SDS011;7282;49.204;10.652;2024-01-07T10:14:55;15.60;;;11.97;;
14394;SDS011;7282;49.204;10.652;2024-01-07T10:17:21;17.23;;;12.43;;
14394;SDS011;7282;49.204;10.652;2024-01-07T10:19:50;15.47;;;11.83;;
14394;SDS011;7282;49.204;10.652;2024-01-07T10:22:16;14.23;;;11.93;;
14394;SDS011;7282;49.204;10.652;2024-01-07T10:24:43;16.47;;;12.53;;
14394;SDS011;7282;49.204;10.652;2024-01-07T10:27:10;17.47;;;13.47;;
14394;SDS011;7282;49.204;10.652;2024-01-07T10:29:37;15.60;;;12.47;;
14394;SDS011;7282;49.204;10.652;2024-01-07T10:32:04;15.30;;;12.33;;
14394;SDS011;7282;49.204;10.652;2024-01-07T10:34:32;16.53;;;12.87;;
14394;SDS011;7282;49.204;10.652;2024-01-07T10:37:00;20.20;;;14.50;;
14394;SDS011;7282;49.204;10.652;2024-01-07T10:39:27;18.30;;;13.87;;
14394;SDS011;7282;49.204;10.652;2024-01-07T10:41:58;17.23;;;13.30;;
14394;SDS011;7282;49.204;10.652;2024-01-07T10:44:30;16.17;;;13.57;;
14394;SDS011;7282;49.204;10.652;2024-01-07T10:46:54;17.90;;;13.97;;
14394;SDS011;7282;49.204;10.652;2024-01-07T10:49:22;17.30;;;13.17;;
14394;SDS011;7282;49.204;10.652;2024-01-07T10:52:04;17.53;;;13.30;;
14394;SDS011;7282;49.204;10.652;2024-01-07T10:54:31;17.83;;;13.10;;
14394;SDS011;7282;49.204;10.652;2024-01-07T10:57:00;20.00;;;14.57;;
14394;SDS011;7282;49.204;10.652;2024-01-07T10:59:27;21.90;;;14.43;;
14394;SDS011;7282;49.204;10.652;2024-01-07T11:01:55;20.33;;;14.83;;
14394;SDS011;7282;49.204;10.652;2024-01-07T11:07:12;18.03;;;13.40;;
14394;SDS011;7282;49.204;10.652;2024-01-07T11:09:39;19.93;;;14.00;;
14394;SDS011;7282;49.204;10.652;2024-01-07T11:12:06;18.93;;;14.17;;
14394;SDS011;7282;49.204;10.652;2024-01-07T11:14:33;19.30;;;14.63;;
14394;SDS011;7282;49.204;10.652;2024-01-07T11:17:00;18.17;;;14.17;;
14394;SDS011;7282;49.204;10.652;2024-01-07T11:19:28;18.93;;;14.10;;
14394;SDS011;7282;49.204;10.652;2024-01-07T11:24:42;18.67;;;13.50;;
14394;SDS011;7282;49.204;10.652;2024-01-07T11:27:09;19.00;;;13.73;;
14394;SDS011;7282;49.204;10.652;2024-01-07T11:29:36;19.77;;;14.47;;
14394;SDS011;7282;49.204;10.652;2024-01-07T11:32:02;19.97;;;14.67;;
14394;SDS011;7282;49.204;10.652;2024-01-07T11:34:39;17.83;;;13.77;;
14394;SDS011;7282;49.204;10.652;2024-01-07T11:37:10;18.60;;;14.50;;
14394;SDS011;7282;49.204;10.652;2024-01-07T11:39:45;17.80;;;14.13;;
14394;SDS011;7282;49.204;10.652;2024-01-07T11:42:12;18.00;;;13.47;;
14394;SDS011;7282;49.204;10.652;2024-01-07T11:44:46;17.60;;;13.50;;
14394;SDS011;7282;49.204;10.652;2024-01-07T11:47:19;20.87;;;15.53;;
14394;SDS011;7282;49.204;10.652;2024-01-07T11:49:42;18.90;;;13.87;;
14394;SDS011;7282;49.204;10.652;2024-01-07T11:52:10;20.27;;;15.03;;
14394;SDS011;7282;49.204;10.652;2024-01-07T11:54:37;20.07;;;15.63;;
14394;SDS011;7282;49.204;10.652;2024-01-07T11:57:07;18.37;;;13.67;;
14394;SDS011;7282;49.204;10.652;2024-01-07T11:59:34;20.60;;;15.50;;
14394;SDS011;7282;49.204;10.652;2024-01-07T12:02:01;20.20;;;15.40;;
14394;SDS011;7282;49.204;10.652;2024-01-07T12:04:30;17.90;;;14.50;;
14394;SDS011;7282;49.204;10.652;2024-01-07T12:06:56;20.87;;;15.53;;
14394;SDS011;7282;49.204;10.652;2024-01-07T12:09:28;19.23;;;15.70;;
14394;SDS011;7282;49.204;10.652;2024-01-07T12:11:52;21.77;;;16.07;;
14394;SDS011;7282;49.204;10.652;2024-01-07T12:14:19;22.30;;;16.20;;
14394;SDS011;7282;49.204;10.652;2024-01-07T12:16:46;19.53;;;15.37;;
14394;SDS011;7282;49.204;10.652;2024-01-07T12:19:12;20.93;;;16.47;;
14394;SDS011;7282;49.204;10.652;2024-01-07T12:21:39;20.90;;;15.93;;
14394;SDS011;7282;49.204;10.652;2024-01-07T12:24:06;20.00;;;14.93;;
14394;SDS011;7282;49.204;10.652;2024-01-07T12:26:32;19.90;;;15.03;;
14394;SDS011;7282;49.204;10.652;2024-01-07T12:29:00;19.13;;;14.93;;
14394;SDS011;7282;49.204;10.652;2024-01-07T12:31:29;21.37;;;15.80;;
14394;SDS011;7282;49.204;10.652;2024-01-07T12:33:56;21.90;;;16.00;;
14394;SDS011;7282;49.204;10.652;2024-01-07T12:36:23;21.43;;;16.03;;
14394;SDS011;7282;49.204;10.652;2024-01-07T12:38:50;20.80;;;15.07;;
14394;SDS011;7282;49.204;10.652;2024-01-07T12:41:17;17.47;;;13.70;;
14394;SDS011;7282;49.204;10.652;2024-01-07T12:43:44;20.37;;;15.87;;
14394;SDS011;7282;49.204;10.652;2024-01-07T12:46:11;21.73;;;15.37;;
14394;SDS011;7282;49.204;10.652;2024-01-07T12:48:38;22.00;;;14.90;;
14394;SDS011;7282;49.204;10.652;2024-01-07T12:51:05;22.03;;;16.00;;
14394;SDS011;7282;49.204;10.652;2024-01-07T12:53:32;21.53;;;15.43;;
14394;SDS011;7282;49.204;10.652;2024-01-07T12:55:59;18.27;;;14.53;;
14394;SDS011;7282;49.204;10.652;2024-01-07T12:58:25;19.30;;;14.20;;
14394;SDS011;7282;49.204;10.652;2024-01-07T13:00:52;18.30;;;14.00;;
14394;SDS011;7282;49.204;10.652;2024-01-07T13:03:19;21.97;;;14.77;;
14394;SDS011;7282;49.204;10.652;2024-01-07T13:05:46;20.77;;;14.67;;
14394;SDS011;7282;49.204;10.652;2024-01-07T13:08:15;22.60;;;15.57;;
14394;SDS011;7282;49.204;10.652;2024-01-07T13:10:44;20.83;;;15.27;;
14394;SDS011;7282;49.204;10.652;2024-01-07T13:13:12;20.40;;;15.37;;
14394;SDS011;7282;49.204;10.652;2024-01-07T13:15:39;18.97;;;14.67;;
14394;SDS011;7282;49.204;10.652;2024-01-07T13:18:07;21.63;;;15.63;;
14394;SDS011;7282;49.204;10.652;2024-01-07T13:20:33;19.27;;;14.17;;
14394;SDS011;7282;49.204;10.652;2024-01-07T13:23:05;19.67;;;14.07;;
14394;SDS011;7282;49.204;10.652;2024-01-07T13:25:32;21.60;;;14.87;;
14394;SDS011;7282;49.204;10.652;2024-01-07T13:27:59;17.93;;;14.47;;
14394;SDS011;7282;49.204;10.652;2024-01-07T13:30:25;19.47;;;14.17;;
14394;SDS011;7282;49.204;10.652;2024-01-07T13:32:52;21.10;;;14.03;;
14394;SDS011;7282;49.204;10.652;2024-01-07T13:35:21;19.87;;;13.87;;
14394;SDS011;7282;49.204;10.652;2024-01-07T13:37:47;17.63;;;13.90;;
14394;SDS011;7282;49.204;10.652;2024-01-07T13:40:14;19.92;;;15.63;;
14394;SDS011;7282;49.204;10.652;2024-01-07T13:42:42;18.10;;;13.83;;
14394;SDS011;7282;49.204;10.652;2024-01-07T13:45:09;17.37;;;12.97;;
14394;SDS011;7282;49.204;10.652;2024-01-07T13:47:36;17.80;;;12.00;;
14394;SDS011;7282;49.204;10.652;2024-01-07T13:50:03;16.33;;;11.93;;
14394;SDS011;7282;49.204;10.652;2024-01-07T13:52:29;16.17;;;11.53;;
14394;SDS011;7282;49.204;10.652;2024-01-07T13:54:56;17.50;;;11.97;;
14394;SDS011;7282;49.204;10.652;2024-01-07T13:57:23;15.73;;;11.77;;
14394;SDS011;7282;49.204;10.652;2024-01-07T13:59:50;15.57;;;11.10;;
14394;SDS011;7282;49.204;10.652;2024-01-07T14:02:16;16.23;;;10.63;;
14394;SDS011;7282;49.204;10.652;2024-01-07T14:04:45;14.33;;;11.00;;
14394;SDS011;7282;49.204;10.652;2024-01-07T14:07:12;15.53;;;11.30;;
14394;SDS011;7282;49.204;10.652;2024-01-07T14:09:39;14.17;;;10.80;;
14394;SDS011;7282;49.204;10.652;2024-01-07T14:12:06;16.03;;;10.50;;
14394;SDS011;7282;49.204;10.652;2024-01-07T14:14:33;14.87;;;11.10;;
14394;SDS011;7282;49.204;10.652;2024-01-07T14:17:00;13.93;;;10.03;;
14394;SDS011;7282;49.204;10.652;2024-01-07T14:19:26;11.27;;;9.20;;
14394;SDS011;7282;49.204;10.652;2024-01-07T14:21:53;14.10;;;9.73;;
14394;SDS011;7282;49.204;10.652;2024-01-07T14:24:20;12.97;;;8.93;;
14394;SDS011;7282;49.204;10.652;2024-01-07T14:26:46;12.03;;;9.07;;
14394;SDS011;7282;49.204;10.652;2024-01-07T14:29:13;12.20;;;9.10;;
14394;SDS011;7282;49.204;10.652;2024-01-07T14:31:40;11.53;;;9.23;;
14394;SDS011;7282;49.204;10.652;2024-01-07T14:34:07;10.83;;;9.37;;